sensor_id;sensor_type;location;lat;lon;timestamp;temperature;humidity
58951;DHT22;44730;53.158;6.398;2022-11-23T00:00:25;7.10;99.90
58951;DHT22;44730;53.158;6.398;2022-11-23T00:02:55;7.10;99.90
58951;DHT22;44730;53.158;6.398;2022-11-23T00:05:21;7.10;99.90
58951;DHT22;44730;53.158;6.398;2022-11-23T00:07:47;7.10;99.90
58951;DHT22;44730;53.158;6.398;2022-11-23T00:10:13;7.30;99.90
58951;DHT22;44730;53.158;6.398;2022-11-23T00:12:38;7.10;99.90
58951;DHT22;44730;53.158;6.398;2022-11-23T00:15:05;7.20;99.90
58951;DHT22;44730;53.158;6.398;2022-11-23T00:17:31;7.20;99.90
58951;DHT22;44730;53.158;6.398;2022-11-23T00:19:57;7.20;99.90
58951;DHT22;44730;53.158;6.398;2022-11-23T00:22:23;8.00;99.90
58951;DHT22;44730;53.158;6.398;2022-11-23T00:24:48;7.20;99.90
58951;DHT22;44730;53.158;6.398;2022-11-23T00:27:14;7.20;99.90
58951;DHT22;44730;53.158;6.398;2022-11-23T00:29:40;7.30;99.90
58951;DHT22;44730;53.158;6.398;2022-11-23T00:32:06;7.30;99.90
58951;DHT22;44730;53.158;6.398;2022-11-23T00:34:31;7.50;99.90
58951;DHT22;44730;53.158;6.398;2022-11-23T00:36:57;7.40;99.90
58951;DHT22;44730;53.158;6.398;2022-11-23T00:39:23;7.90;99.90
58951;DHT22;44730;53.158;6.398;2022-11-23T00:41:49;7.40;99.90
58951;DHT22;44730;53.158;6.398;2022-11-23T00:44:14;7.40;99.90
58951;DHT22;44730;53.158;6.398;2022-11-23T00:46:43;7.40;99.90
58951;DHT22;44730;53.158;6.398;2022-11-23T00:49:09;7.40;99.90
58951;DHT22;44730;53.158;6.398;2022-11-23T00:51:35;8.00;99.90
58951;DHT22;44730;53.158;6.398;2022-11-23T00:54:03;7.40;99.90
58951;DHT22;44730;53.158;6.398;2022-11-23T00:56:30;7.40;99.90
58951;DHT22;44730;53.158;6.398;2022-11-23T00:58:58;7.40;99.90
58951;DHT22;44730;53.158;6.398;2022-11-23T01:01:26;7.40;99.90
58951;DHT22;44730;53.158;6.398;2022-11-23T01:03:53;7.80;99.90
58951;DHT22;44730;53.158;6.398;2022-11-23T01:06:31;7.50;99.90
58951;DHT22;44730;53.158;6.398;2022-11-23T01:09:03;7.50;99.90
58951;DHT22;44730;53.158;6.398;2022-11-23T01:11:32;7.50;99.90
58951;DHT22;44730;53.158;6.398;2022-11-23T01:13:59;7.50;99.90
58951;DHT22;44730;53.158;6.398;2022-11-23T01:16:27;7.50;99.90
58951;DHT22;44730;53.158;6.398;2022-11-23T01:18:54;8.40;99.90
58951;DHT22;44730;53.158;6.398;2022-11-23T01:21:19;7.50;99.90
58951;DHT22;44730;53.158;6.398;2022-11-23T01:23:45;7.50;99.90
58951;DHT22;44730;53.158;6.398;2022-11-23T01:26:11;7.50;99.90
58951;DHT22;44730;53.158;6.398;2022-11-23T01:28:38;8.00;99.90
58951;DHT22;44730;53.158;6.398;2022-11-23T01:31:05;7.60;99.90
58951;DHT22;44730;53.158;6.398;2022-11-23T01:33:31;7.70;99.90
58951;DHT22;44730;53.158;6.398;2022-11-23T01:35:57;7.60;99.90
58951;DHT22;44730;53.158;6.398;2022-11-23T01:38:23;7.60;99.90
58951;DHT22;44730;53.158;6.398;2022-11-23T01:40:49;8.10;99.90
58951;DHT22;44730;53.158;6.398;2022-11-23T01:43:16;7.60;99.90
58951;DHT22;44730;53.158;6.398;2022-11-23T01:48:23;7.60;99.90
58951;DHT22;44730;53.158;6.398;2022-11-23T01:50:51;7.60;99.90
58951;DHT22;44730;53.158;6.398;2022-11-23T01:53:18;7.60;99.90
58951;DHT22;44730;53.158;6.398;2022-11-23T01:55:46;7.60;99.90
58951;DHT22;44730;53.158;6.398;2022-11-23T01:58:18;7.60;99.90
58951;DHT22;44730;53.158;6.398;2022-11-23T02:00:45;7.50;99.90
58951;DHT22;44730;53.158;6.398;2022-11-23T02:03:12;7.60;99.90
58951;DHT22;44730;53.158;6.398;2022-11-23T02:05:43;7.50;99.90
58951;DHT22;44730;53.158;6.398;2022-11-23T02:08:12;8.00;99.90
58951;DHT22;44730;53.158;6.398;2022-11-23T02:10:38;7.50;99.90
58951;DHT22;44730;53.158;6.398;2022-11-23T02:13:09;7.50;99.90
58951;DHT22;44730;53.158;6.398;2022-11-23T02:15:35;7.50;99.90
58951;DHT22;44730;53.158;6.398;2022-11-23T02:18:03;7.50;99.90
58951;DHT22;44730;53.158;6.398;2022-11-23T02:20:30;7.60;99.90
58951;DHT22;44730;53.158;6.398;2022-11-23T02:23:07;7.60;99.90
58951;DHT22;44730;53.158;6.398;2022-11-23T02:28:16;7.50;99.90
58951;DHT22;44730;53.158;6.398;2022-11-23T02:30:45;7.50;99.90
58951;DHT22;44730;53.158;6.398;2022-11-23T02:33:11;8.20;99.90
58951;DHT22;44730;53.158;6.398;2022-11-23T02:35:58;7.50;99.90
58951;DHT22;44730;53.158;6.398;2022-11-23T02:38:27;7.60;99.90
58951;DHT22;44730;53.158;6.398;2022-11-23T02:40:54;7.60;99.90
58951;DHT22;44730;53.158;6.398;2022-11-23T02:43:20;7.80;99.90
58951;DHT22;44730;53.158;6.398;2022-11-23T02:45:55;7.70;99.90
58951;DHT22;44730;53.158;6.398;2022-11-23T02:48:22;7.60;99.90
58951;DHT22;44730;53.158;6.398;2022-11-23T02:50:48;7.60;99.90
58951;DHT22;44730;53.158;6.398;2022-11-23T02:53:14;7.60;99.90
58951;DHT22;44730;53.158;6.398;2022-11-23T02:55:39;7.60;99.90
58951;DHT22;44730;53.158;6.398;2022-11-23T02:58:05;7.80;99.90
58951;DHT22;44730;53.158;6.398;2022-11-23T03:00:32;7.60;99.90
58951;DHT22;44730;53.158;6.398;2022-11-23T03:02:59;7.60;99.90
58951;DHT22;44730;53.158;6.398;2022-11-23T03:05:25;7.70;99.90
58951;DHT22;44730;53.158;6.398;2022-11-23T03:07:51;7.50;99.90
58951;DHT22;44730;53.158;6.398;2022-11-23T03:10:18;7.70;99.90
58951;DHT22;44730;53.158;6.398;2022-11-23T03:12:44;7.60;99.90
58951;DHT22;44730;53.158;6.398;2022-11-23T03:15:10;7.70;99.90
58951;DHT22;44730;53.158;6.398;2022-11-23T03:17:35;7.70;99.90
58951;DHT22;44730;53.158;6.398;2022-11-23T03:20:01;8.80;99.90
58951;DHT22;44730;53.158;6.398;2022-11-23T03:22:27;7.70;99.90
58951;DHT22;44730;53.158;6.398;2022-11-23T03:24:53;7.70;99.90
58951;DHT22;44730;53.158;6.398;2022-11-23T03:27:19;7.70;99.90
58951;DHT22;44730;53.158;6.398;2022-11-23T03:29:44;7.70;99.90
58951;DHT22;44730;53.158;6.398;2022-11-23T03:32:10;7.70;99.90
58951;DHT22;44730;53.158;6.398;2022-11-23T03:34:36;7.70;99.90
58951;DHT22;44730;53.158;6.398;2022-11-23T03:37:02;7.70;99.90
58951;DHT22;44730;53.158;6.398;2022-11-23T03:39:27;7.70;99.90
58951;DHT22;44730;53.158;6.398;2022-11-23T03:41:53;8.10;99.90
58951;DHT22;44730;53.158;6.398;2022-11-23T03:44:19;7.70;99.90
58951;DHT22;44730;53.158;6.398;2022-11-23T03:46:44;7.70;99.90
58951;DHT22;44730;53.158;6.398;2022-11-23T03:49:10;7.70;99.90
58951;DHT22;44730;53.158;6.398;2022-11-23T03:51:37;7.70;99.90
58951;DHT22;44730;53.158;6.398;2022-11-23T03:54:02;7.70;99.90
58951;DHT22;44730;53.158;6.398;2022-11-23T03:56:28;7.60;99.90
58951;DHT22;44730;53.158;6.398;2022-11-23T03:58:54;7.60;99.90
58951;DHT22;44730;53.158;6.398;2022-11-23T04:01:19;7.70;99.90
58951;DHT22;44730;53.158;6.398;2022-11-23T04:03:45;7.60;99.90
58951;DHT22;44730;53.158;6.398;2022-11-23T04:06:11;7.70;99.90
58951;DHT22;44730;53.158;6.398;2022-11-23T04:08:36;7.70;99.90
58951;DHT22;44730;53.158;6.398;2022-11-23T04:11:02;8.30;99.90
58951;DHT22;44730;53.158;6.398;2022-11-23T04:13:28;7.70;99.90
58951;DHT22;44730;53.158;6.398;2022-11-23T04:15:53;7.60;99.90
58951;DHT22;44730;53.158;6.398;2022-11-23T04:18:19;7.70;99.90
58951;DHT22;44730;53.158;6.398;2022-11-23T04:20:45;7.60;99.90
58951;DHT22;44730;53.158;6.398;2022-11-23T04:23:11;7.60;99.90
58951;DHT22;44730;53.158;6.398;2022-11-23T04:25:36;7.70;99.90
58951;DHT22;44730;53.158;6.398;2022-11-23T04:28:02;7.60;99.90
58951;DHT22;44730;53.158;6.398;2022-11-23T04:30:28;7.70;99.90
58951;DHT22;44730;53.158;6.398;2022-11-23T04:32:53;7.60;99.90
58951;DHT22;44730;53.158;6.398;2022-11-23T04:35:19;7.60;99.90
58951;DHT22;44730;53.158;6.398;2022-11-23T04:37:46;7.70;99.90
58951;DHT22;44730;53.158;6.398;2022-11-23T04:40:13;7.60;99.90
58951;DHT22;44730;53.158;6.398;2022-11-23T04:42:38;7.60;99.90
58951;DHT22;44730;53.158;6.398;2022-11-23T04:45:04;7.60;99.90
58951;DHT22;44730;53.158;6.398;2022-11-23T04:47:31;7.50;99.90
58951;DHT22;44730;53.158;6.398;2022-11-23T04:49:57;7.50;99.90
58951;DHT22;44730;53.158;6.398;2022-11-23T04:52:22;7.50;99.90
58951;DHT22;44730;53.158;6.398;2022-11-23T04:54:48;7.60;99.90
58951;DHT22;44730;53.158;6.398;2022-11-23T04:57:14;7.50;99.90
58951;DHT22;44730;53.158;6.398;2022-11-23T04:59:39;7.50;99.90
58951;DHT22;44730;53.158;6.398;2022-11-23T05:02:05;7.50;99.90
58951;DHT22;44730;53.158;6.398;2022-11-23T05:04:32;7.50;99.90
58951;DHT22;44730;53.158;6.398;2022-11-23T05:06:58;7.50;99.90
58951;DHT22;44730;53.158;6.398;2022-11-23T05:09:24;7.60;99.90
58951;DHT22;44730;53.158;6.398;2022-11-23T05:11:50;7.50;99.90
58951;DHT22;44730;53.158;6.398;2022-11-23T05:14:15;7.50;99.90
58951;DHT22;44730;53.158;6.398;2022-11-23T05:16:41;7.50;99.90
58951;DHT22;44730;53.158;6.398;2022-11-23T05:19:07;7.50;99.90
58951;DHT22;44730;53.158;6.398;2022-11-23T05:21:33;7.60;99.90
58951;DHT22;44730;53.158;6.398;2022-11-23T05:23:58;7.70;99.90
58951;DHT22;44730;53.158;6.398;2022-11-23T05:26:24;7.60;99.90
58951;DHT22;44730;53.158;6.398;2022-11-23T05:28:50;7.60;99.90
58951;DHT22;44730;53.158;6.398;2022-11-23T05:31:18;7.60;99.90
58951;DHT22;44730;53.158;6.398;2022-11-23T05:33:44;7.60;99.90
58951;DHT22;44730;53.158;6.398;2022-11-23T05:36:10;7.60;99.90
58951;DHT22;44730;53.158;6.398;2022-11-23T05:38:39;8.10;99.90
58951;DHT22;44730;53.158;6.398;2022-11-23T05:41:08;7.70;99.90
58951;DHT22;44730;53.158;6.398;2022-11-23T05:43:34;7.60;99.90
58951;DHT22;44730;53.158;6.398;2022-11-23T05:46:00;7.60;99.90
58951;DHT22;44730;53.158;6.398;2022-11-23T05:48:27;7.70;99.90
58951;DHT22;44730;53.158;6.398;2022-11-23T05:50:52;7.70;99.90
58951;DHT22;44730;53.158;6.398;2022-11-23T05:53:18;7.70;99.90
58951;DHT22;44730;53.158;6.398;2022-11-23T05:55:44;8.50;99.90
58951;DHT22;44730;53.158;6.398;2022-11-23T05:58:10;7.70;99.90
58951;DHT22;44730;53.158;6.398;2022-11-23T06:00:36;8.20;99.90
58951;DHT22;44730;53.158;6.398;2022-11-23T06:03:02;7.80;99.90
58951;DHT22;44730;53.158;6.398;2022-11-23T06:05:29;7.80;99.90
58951;DHT22;44730;53.158;6.398;2022-11-23T06:07:55;7.70;99.90
58951;DHT22;44730;53.158;6.398;2022-11-23T06:10:21;7.80;99.90
58951;DHT22;44730;53.158;6.398;2022-11-23T06:12:47;7.70;99.90
58951;DHT22;44730;53.158;6.398;2022-11-23T06:15:14;7.80;99.90
58951;DHT22;44730;53.158;6.398;2022-11-23T06:17:40;7.70;99.90
58951;DHT22;44730;53.158;6.398;2022-11-23T06:20:07;8.40;99.90
58951;DHT22;44730;53.158;6.398;2022-11-23T06:22:33;7.80;99.90
58951;DHT22;44730;53.158;6.398;2022-11-23T06:24:59;7.80;99.90
58951;DHT22;44730;53.158;6.398;2022-11-23T06:27:24;7.80;99.90
58951;DHT22;44730;53.158;6.398;2022-11-23T06:29:50;7.90;99.90
58951;DHT22;44730;53.158;6.398;2022-11-23T06:32:16;7.80;99.90
58951;DHT22;44730;53.158;6.398;2022-11-23T06:34:41;7.70;99.90
58951;DHT22;44730;53.158;6.398;2022-11-23T06:37:07;7.80;99.90
58951;DHT22;44730;53.158;6.398;2022-11-23T06:39:33;7.70;99.90
58951;DHT22;44730;53.158;6.398;2022-11-23T06:41:58;7.70;99.90
58951;DHT22;44730;53.158;6.398;2022-11-23T06:44:25;7.70;99.90
58951;DHT22;44730;53.158;6.398;2022-11-23T06:46:51;7.80;99.90
58951;DHT22;44730;53.158;6.398;2022-11-23T06:49:17;7.70;99.90
58951;DHT22;44730;53.158;6.398;2022-11-23T06:51:45;7.70;99.90
58951;DHT22;44730;53.158;6.398;2022-11-23T06:54:11;7.80;99.90
58951;DHT22;44730;53.158;6.398;2022-11-23T06:56:40;7.70;99.90
58951;DHT22;44730;53.158;6.398;2022-11-23T06:59:05;7.60;99.90
58951;DHT22;44730;53.158;6.398;2022-11-23T07:01:31;7.60;99.90
58951;DHT22;44730;53.158;6.398;2022-11-23T07:03:57;7.60;99.90
58951;DHT22;44730;53.158;6.398;2022-11-23T07:06:22;7.60;99.90
58951;DHT22;44730;53.158;6.398;2022-11-23T07:08:48;7.60;99.90
58951;DHT22;44730;53.158;6.398;2022-11-23T07:11:14;8.40;99.90
58951;DHT22;44730;53.158;6.398;2022-11-23T07:13:39;7.50;99.90
58951;DHT22;44730;53.158;6.398;2022-11-23T07:16:05;7.50;99.90
58951;DHT22;44730;53.158;6.398;2022-11-23T07:18:31;7.40;99.90
58951;DHT22;44730;53.158;6.398;2022-11-23T07:20:57;7.40;99.90
58951;DHT22;44730;53.158;6.398;2022-11-23T07:23:24;7.70;99.90
58951;DHT22;44730;53.158;6.398;2022-11-23T07:25:50;7.40;99.90
58951;DHT22;44730;53.158;6.398;2022-11-23T07:28:16;7.40;99.90
58951;DHT22;44730;53.158;6.398;2022-11-23T07:30:42;7.80;99.90
58951;DHT22;44730;53.158;6.398;2022-11-23T07:33:10;7.30;99.90
58951;DHT22;44730;53.158;6.398;2022-11-23T07:35:37;7.30;99.90
58951;DHT22;44730;53.158;6.398;2022-11-23T07:38:03;7.30;99.90
58951;DHT22;44730;53.158;6.398;2022-11-23T07:40:33;7.40;99.90
58951;DHT22;44730;53.158;6.398;2022-11-23T07:43:01;8.50;99.90
58951;DHT22;44730;53.158;6.398;2022-11-23T07:45:27;7.30;99.90
58951;DHT22;44730;53.158;6.398;2022-11-23T07:47:58;7.30;99.90
58951;DHT22;44730;53.158;6.398;2022-11-23T07:50:24;7.40;99.90
58951;DHT22;44730;53.158;6.398;2022-11-23T07:52:49;7.60;99.90
58951;DHT22;44730;53.158;6.398;2022-11-23T07:55:19;7.60;99.90
58951;DHT22;44730;53.158;6.398;2022-11-23T07:57:45;7.40;99.90
58951;DHT22;44730;53.158;6.398;2022-11-23T08:00:11;7.40;99.90
58951;DHT22;44730;53.158;6.398;2022-11-23T08:02:37;7.50;99.90
58951;DHT22;44730;53.158;6.398;2022-11-23T08:05:03;7.50;99.90
58951;DHT22;44730;53.158;6.398;2022-11-23T08:07:29;7.50;99.90
58951;DHT22;44730;53.158;6.398;2022-11-23T08:09:55;7.50;99.90
58951;DHT22;44730;53.158;6.398;2022-11-23T08:12:21;8.00;99.90
58951;DHT22;44730;53.158;6.398;2022-11-23T08:14:47;7.50;99.90
58951;DHT22;44730;53.158;6.398;2022-11-23T08:17:12;7.90;99.90
58951;DHT22;44730;53.158;6.398;2022-11-23T08:19:38;7.60;99.90
58951;DHT22;44730;53.158;6.398;2022-11-23T08:22:04;7.60;99.90
58951;DHT22;44730;53.158;6.398;2022-11-23T08:24:29;7.60;99.90
58951;DHT22;44730;53.158;6.398;2022-11-23T08:26:55;7.60;99.90
58951;DHT22;44730;53.158;6.398;2022-11-23T08:29:21;7.60;99.90
58951;DHT22;44730;53.158;6.398;2022-11-23T08:31:47;7.70;99.90
58951;DHT22;44730;53.158;6.398;2022-11-23T08:34:12;7.70;99.90
58951;DHT22;44730;53.158;6.398;2022-11-23T08:36:38;7.80;99.90
58951;DHT22;44730;53.158;6.398;2022-11-23T08:39:04;7.80;99.90
58951;DHT22;44730;53.158;6.398;2022-11-23T08:41:32;7.80;99.90
58951;DHT22;44730;53.158;6.398;2022-11-23T08:43:58;7.90;99.90
58951;DHT22;44730;53.158;6.398;2022-11-23T08:46:24;7.90;99.90
58951;DHT22;44730;53.158;6.398;2022-11-23T08:48:49;7.90;99.90
58951;DHT22;44730;53.158;6.398;2022-11-23T08:51:15;8.30;99.90
58951;DHT22;44730;53.158;6.398;2022-11-23T08:53:47;8.00;99.90
58951;DHT22;44730;53.158;6.398;2022-11-23T08:56:12;8.00;99.90
58951;DHT22;44730;53.158;6.398;2022-11-23T08:58:38;8.00;99.90
58951;DHT22;44730;53.158;6.398;2022-11-23T09:01:22;8.00;99.90
58951;DHT22;44730;53.158;6.398;2022-11-23T09:03:48;8.10;99.90
58951;DHT22;44730;53.158;6.398;2022-11-23T09:06:14;8.10;99.90
58951;DHT22;44730;53.158;6.398;2022-11-23T09:08:39;8.30;99.90
58951;DHT22;44730;53.158;6.398;2022-11-23T09:11:09;8.20;99.90
58951;DHT22;44730;53.158;6.398;2022-11-23T09:13:37;8.80;99.90
58951;DHT22;44730;53.158;6.398;2022-11-23T09:16:04;8.30;99.90
58951;DHT22;44730;53.158;6.398;2022-11-23T09:18:30;8.30;99.90
58951;DHT22;44730;53.158;6.398;2022-11-23T09:20:57;8.40;99.90
58951;DHT22;44730;53.158;6.398;2022-11-23T09:23:26;8.40;99.90
58951;DHT22;44730;53.158;6.398;2022-11-23T09:25:52;8.60;99.90
58951;DHT22;44730;53.158;6.398;2022-11-23T09:28:18;8.70;99.90
58951;DHT22;44730;53.158;6.398;2022-11-23T09:30:49;8.80;99.90
58951;DHT22;44730;53.158;6.398;2022-11-23T09:33:15;8.80;99.90
58951;DHT22;44730;53.158;6.398;2022-11-23T09:35:40;9.40;99.90
58951;DHT22;44730;53.158;6.398;2022-11-23T09:38:06;9.20;99.90
58951;DHT22;44730;53.158;6.398;2022-11-23T09:40:35;8.90;99.90
58951;DHT22;44730;53.158;6.398;2022-11-23T09:45:51;8.90;99.90
58951;DHT22;44730;53.158;6.398;2022-11-23T09:50:54;8.90;99.90
58951;DHT22;44730;53.158;6.398;2022-11-23T09:53:27;8.90;99.90
58951;DHT22;44730;53.158;6.398;2022-11-23T09:55:55;8.90;99.90
58951;DHT22;44730;53.158;6.398;2022-11-23T09:58:30;8.90;99.90
58951;DHT22;44730;53.158;6.398;2022-11-23T10:01:11;8.90;99.90
58951;DHT22;44730;53.158;6.398;2022-11-23T10:03:39;9.00;99.90
58951;DHT22;44730;53.158;6.398;2022-11-23T10:14:52;8.90;99.90
58951;DHT22;44730;53.158;6.398;2022-11-23T10:22:58;9.00;99.90
58951;DHT22;44730;53.158;6.398;2022-11-23T10:25:25;9.00;99.90
58951;DHT22;44730;53.158;6.398;2022-11-23T10:27:57;9.10;99.90
58951;DHT22;44730;53.158;6.398;2022-11-23T10:30:24;9.00;99.90
58951;DHT22;44730;53.158;6.398;2022-11-23T10:35:31;9.00;99.90
58951;DHT22;44730;53.158;6.398;2022-11-23T10:38:09;9.10;99.90
58951;DHT22;44730;53.158;6.398;2022-11-23T10:40:37;9.10;99.90
58951;DHT22;44730;53.158;6.398;2022-11-23T10:43:19;9.10;99.90
58951;DHT22;44730;53.158;6.398;2022-11-23T10:45:47;9.20;99.90
58951;DHT22;44730;53.158;6.398;2022-11-23T10:48:35;9.20;99.90
58951;DHT22;44730;53.158;6.398;2022-11-23T10:51:25;9.10;99.90
58951;DHT22;44730;53.158;6.398;2022-11-23T10:54:01;9.10;99.90
58951;DHT22;44730;53.158;6.398;2022-11-23T10:56:28;9.10;99.90
58951;DHT22;44730;53.158;6.398;2022-11-23T10:58:54;9.20;99.90
58951;DHT22;44730;53.158;6.398;2022-11-23T11:01:26;9.30;99.90
58951;DHT22;44730;53.158;6.398;2022-11-23T11:03:55;9.30;99.90
58951;DHT22;44730;53.158;6.398;2022-11-23T11:06:27;9.40;99.90
58951;DHT22;44730;53.158;6.398;2022-11-23T11:08:55;9.40;99.90
58951;DHT22;44730;53.158;6.398;2022-11-23T11:11:37;9.50;99.90
58951;DHT22;44730;53.158;6.398;2022-11-23T11:14:04;9.70;99.90
58951;DHT22;44730;53.158;6.398;2022-11-23T11:16:35;9.80;99.90
58951;DHT22;44730;53.158;6.398;2022-11-23T11:21:46;9.90;99.90
58951;DHT22;44730;53.158;6.398;2022-11-23T11:26:58;9.80;99.90
58951;DHT22;44730;53.158;6.398;2022-11-23T11:29:45;9.70;99.90
58951;DHT22;44730;53.158;6.398;2022-11-23T11:32:48;9.70;99.90
58951;DHT22;44730;53.158;6.398;2022-11-23T11:35:33;9.70;99.90
58951;DHT22;44730;53.158;6.398;2022-11-23T11:38:03;9.60;99.90
58951;DHT22;44730;53.158;6.398;2022-11-23T11:40:46;9.70;99.90
58951;DHT22;44730;53.158;6.398;2022-11-23T11:43:33;9.70;99.90
58951;DHT22;44730;53.158;6.398;2022-11-23T11:46:03;9.80;99.90
58951;DHT22;44730;53.158;6.398;2022-11-23T11:48:44;9.80;99.90
58951;DHT22;44730;53.158;6.398;2022-11-23T11:51:19;9.90;99.90
58951;DHT22;44730;53.158;6.398;2022-11-23T11:56:35;9.90;99.90
58951;DHT22;44730;53.158;6.398;2022-11-23T11:59:19;9.80;99.90
58951;DHT22;44730;53.158;6.398;2022-11-23T12:04:22;9.70;99.90
58951;DHT22;44730;53.158;6.398;2022-11-23T12:07:04;9.60;99.90
58951;DHT22;44730;53.158;6.398;2022-11-23T12:09:38;9.60;99.90
58951;DHT22;44730;53.158;6.398;2022-11-23T12:12:16;9.60;99.90
58951;DHT22;44730;53.158;6.398;2022-11-23T12:14:44;9.50;99.90
58951;DHT22;44730;53.158;6.398;2022-11-23T12:23:27;9.50;99.90
58951;DHT22;44730;53.158;6.398;2022-11-23T12:26:11;9.60;99.90
58951;DHT22;44730;53.158;6.398;2022-11-23T12:40:13;9.60;99.90
58951;DHT22;44730;53.158;6.398;2022-11-23T12:42:49;9.70;99.90
58951;DHT22;44730;53.158;6.398;2022-11-23T12:45:46;9.70;99.90
58951;DHT22;44730;53.158;6.398;2022-11-23T12:48:31;9.70;99.90
58951;DHT22;44730;53.158;6.398;2022-11-23T12:53:53;9.70;99.90
58951;DHT22;44730;53.158;6.398;2022-11-23T12:59:20;9.70;99.90
58951;DHT22;44730;53.158;6.398;2022-11-23T13:01:55;9.70;99.90
58951;DHT22;44730;53.158;6.398;2022-11-23T13:12:56;9.70;99.90
58951;DHT22;44730;53.158;6.398;2022-11-23T13:23:47;9.60;99.90
58951;DHT22;44730;53.158;6.398;2022-11-23T13:26:17;9.60;99.90
58951;DHT22;44730;53.158;6.398;2022-11-23T13:28:46;9.60;99.90
58951;DHT22;44730;53.158;6.398;2022-11-23T13:34:00;9.70;99.90
58951;DHT22;44730;53.158;6.398;2022-11-23T13:39:00;9.70;99.90
58951;DHT22;44730;53.158;6.398;2022-11-23T13:44:28;10.40;99.90
58951;DHT22;44730;53.158;6.398;2022-11-23T13:47:02;9.50;99.90
58951;DHT22;44730;53.158;6.398;2022-11-23T13:52:26;9.40;99.90
58951;DHT22;44730;53.158;6.398;2022-11-23T13:57:34;9.30;99.90
58951;DHT22;44730;53.158;6.398;2022-11-23T14:09:15;9.30;99.90
58951;DHT22;44730;53.158;6.398;2022-11-23T14:20:03;9.10;99.90
58951;DHT22;44730;53.158;6.398;2022-11-23T14:31:25;8.90;99.90
58951;DHT22;44730;53.158;6.398;2022-11-23T14:33:58;8.80;99.90
58951;DHT22;44730;53.158;6.398;2022-11-23T14:37:07;8.80;99.90
58951;DHT22;44730;53.158;6.398;2022-11-23T14:42:22;8.70;99.90
58951;DHT22;44730;53.158;6.398;2022-11-23T14:44:49;8.70;99.90
58951;DHT22;44730;53.158;6.398;2022-11-23T14:47:25;8.60;99.90
58951;DHT22;44730;53.158;6.398;2022-11-23T14:49:51;9.50;99.90
58951;DHT22;44730;53.158;6.398;2022-11-23T14:52:20;8.60;99.90
58951;DHT22;44730;53.158;6.398;2022-11-23T14:54:57;8.60;99.90
58951;DHT22;44730;53.158;6.398;2022-11-23T14:57:28;8.40;99.90
58951;DHT22;44730;53.158;6.398;2022-11-23T14:59:58;9.60;99.90
58951;DHT22;44730;53.158;6.398;2022-11-23T15:02:31;8.40;99.90
58951;DHT22;44730;53.158;6.398;2022-11-23T15:05:21;8.40;99.90
58951;DHT22;44730;53.158;6.398;2022-11-23T15:08:05;8.30;99.90
58951;DHT22;44730;53.158;6.398;2022-11-23T15:10:43;8.30;99.90
58951;DHT22;44730;53.158;6.398;2022-11-23T15:13:24;8.30;99.90
58951;DHT22;44730;53.158;6.398;2022-11-23T15:15:56;8.20;99.90
58951;DHT22;44730;53.158;6.398;2022-11-23T15:18:31;9.10;99.90
58951;DHT22;44730;53.158;6.398;2022-11-23T15:21:00;8.10;99.90
58951;DHT22;44730;53.158;6.398;2022-11-23T15:23:39;8.10;99.90
58951;DHT22;44730;53.158;6.398;2022-11-23T15:26:16;8.20;99.90
58951;DHT22;44730;53.158;6.398;2022-11-23T15:28:42;9.30;99.90
58951;DHT22;44730;53.158;6.398;2022-11-23T15:31:25;8.90;99.90
58951;DHT22;44730;53.158;6.398;2022-11-23T15:33:55;8.30;99.90
58951;DHT22;44730;53.158;6.398;2022-11-23T15:36:30;8.40;99.90
58951;DHT22;44730;53.158;6.398;2022-11-23T15:38:57;8.40;99.90
58951;DHT22;44730;53.158;6.398;2022-11-23T15:41:26;8.40;99.90
58951;DHT22;44730;53.158;6.398;2022-11-23T15:44:23;8.40;99.90
58951;DHT22;44730;53.158;6.398;2022-11-23T15:46:56;8.50;99.90
58951;DHT22;44730;53.158;6.398;2022-11-23T15:49:23;8.50;99.90
58951;DHT22;44730;53.158;6.398;2022-11-23T15:51:49;8.50;99.90
58951;DHT22;44730;53.158;6.398;2022-11-23T15:54:22;8.50;99.90
58951;DHT22;44730;53.158;6.398;2022-11-23T15:56:54;8.50;99.90
58951;DHT22;44730;53.158;6.398;2022-11-23T16:02:09;8.40;99.90
58951;DHT22;44730;53.158;6.398;2022-11-23T16:04:39;8.40;99.90
58951;DHT22;44730;53.158;6.398;2022-11-23T16:07:23;8.20;99.90
58951;DHT22;44730;53.158;6.398;2022-11-23T16:10:13;8.20;99.90
58951;DHT22;44730;53.158;6.398;2022-11-23T16:12:46;8.20;99.90
58951;DHT22;44730;53.158;6.398;2022-11-23T16:17:52;8.20;99.90
58951;DHT22;44730;53.158;6.398;2022-11-23T16:20:20;8.10;99.90
58951;DHT22;44730;53.158;6.398;2022-11-23T16:22:49;8.10;99.90
58951;DHT22;44730;53.158;6.398;2022-11-23T16:25:33;8.70;99.90
58951;DHT22;44730;53.158;6.398;2022-11-23T16:28:02;8.10;99.90
58951;DHT22;44730;53.158;6.398;2022-11-23T16:33:01;8.10;99.90
58951;DHT22;44730;53.158;6.398;2022-11-23T16:35:27;8.10;99.90
58951;DHT22;44730;53.158;6.398;2022-11-23T16:37:52;8.10;99.90
58951;DHT22;44730;53.158;6.398;2022-11-23T16:40:18;8.10;99.90
58951;DHT22;44730;53.158;6.398;2022-11-23T16:42:44;8.20;99.90
58951;DHT22;44730;53.158;6.398;2022-11-23T16:45:11;8.10;99.90
58951;DHT22;44730;53.158;6.398;2022-11-23T16:47:50;8.10;99.90
58951;DHT22;44730;53.158;6.398;2022-11-23T16:50:17;8.10;99.90
58951;DHT22;44730;53.158;6.398;2022-11-23T16:52:43;8.10;99.90
58951;DHT22;44730;53.158;6.398;2022-11-23T16:55:09;8.10;99.90
58951;DHT22;44730;53.158;6.398;2022-11-23T16:57:35;8.10;99.90
58951;DHT22;44730;53.158;6.398;2022-11-23T17:00:04;8.10;99.90
58951;DHT22;44730;53.158;6.398;2022-11-23T17:02:30;8.10;99.90
58951;DHT22;44730;53.158;6.398;2022-11-23T17:04:56;8.10;99.90
58951;DHT22;44730;53.158;6.398;2022-11-23T17:07:22;8.10;99.90
58951;DHT22;44730;53.158;6.398;2022-11-23T17:09:48;8.10;99.90
58951;DHT22;44730;53.158;6.398;2022-11-23T17:12:16;8.10;99.90
58951;DHT22;44730;53.158;6.398;2022-11-23T17:14:45;8.10;99.90
58951;DHT22;44730;53.158;6.398;2022-11-23T17:17:18;8.10;99.90
58951;DHT22;44730;53.158;6.398;2022-11-23T17:19:45;8.00;99.90
58951;DHT22;44730;53.158;6.398;2022-11-23T17:22:14;7.90;99.90
58951;DHT22;44730;53.158;6.398;2022-11-23T17:24:40;7.90;99.90
58951;DHT22;44730;53.158;6.398;2022-11-23T17:27:17;7.90;99.90
58951;DHT22;44730;53.158;6.398;2022-11-23T17:29:44;7.80;99.90
58951;DHT22;44730;53.158;6.398;2022-11-23T17:32:11;7.70;99.90
58951;DHT22;44730;53.158;6.398;2022-11-23T17:34:38;7.70;99.90
58951;DHT22;44730;53.158;6.398;2022-11-23T17:37:04;7.70;99.90
58951;DHT22;44730;53.158;6.398;2022-11-23T17:39:30;7.60;99.90
58951;DHT22;44730;53.158;6.398;2022-11-23T17:41:56;7.60;99.90
58951;DHT22;44730;53.158;6.398;2022-11-23T17:44:22;7.50;99.90
58951;DHT22;44730;53.158;6.398;2022-11-23T17:46:49;7.50;99.90
58951;DHT22;44730;53.158;6.398;2022-11-23T17:49:17;7.60;99.90
58951;DHT22;44730;53.158;6.398;2022-11-23T17:51:44;8.20;99.90
58951;DHT22;44730;53.158;6.398;2022-11-23T17:54:10;7.50;99.90
58951;DHT22;44730;53.158;6.398;2022-11-23T17:56:36;7.50;99.90
58951;DHT22;44730;53.158;6.398;2022-11-23T17:59:03;7.50;99.90
58951;DHT22;44730;53.158;6.398;2022-11-23T18:01:32;7.50;99.90
58951;DHT22;44730;53.158;6.398;2022-11-23T18:03:57;7.40;99.90